This is the latest recevied weather packets stored in our database for station/object KB4MOX. If no packets are shown the sender has not sent any weather packets the latest 10 day(s).
| Time | Temp. | Humidity | Pressure | Rain* | Wind** | Luminosity | Snow |
|---|---|---|---|---|---|---|---|
| 1788195707 | 30.56° C | 65% | 1020.8 hPa | 0 mm | - | 832 W/m² | - |
| 1788195403 | 31.11° C | 61% | 1021 hPa | 0 mm | - | 96 W/m² | - |
| 1788195099 | 31.11° C | 61% | 1020.8 hPa | 0 mm | - | 169 W/m² | - |
| 1788194795 | 30.56° C | 62% | 1020.9 hPa | 0 mm | - | 867 W/m² | - |
| 1788194490 | 30.56° C | 63% | 1021.2 hPa | 0 mm | - | 150 W/m² | - |
| 1788194186 | 30.56° C | 64% | 1021.2 hPa | 0 mm | - | 141 W/m² | - |
| 1788193881 | 31.67° C | 62% | 1021.1 hPa | 0 mm | - | 126 W/m² | - |
| 1788193592 | 31.11° C | 63% | 1021.2 hPa | 0 mm | - | 809 W/m² | - |
| 1788193278 | 30° C | 65% | 1021.2 hPa | 0 mm | - | 768 W/m² | - |
| 1788192974 | 30° C | 65% | 1021.3 hPa | 0 mm | - | 279 W/m² | - |
| 1788192671 | 30° C | 66% | 1021.5 hPa | 0 mm | - | 774 W/m² | - |
| 1788192369 | 30.56° C | 65% | 1021.4 hPa | 0 mm | - | 112 W/m² | - |
| 1788192065 | 30.56° C | 65% | 1021.2 hPa | 0 mm | - | 687 W/m² | - |
| 1788191765 | 31.67° C | 62% | 1021.1 hPa | 0 mm | - | 793 W/m² | - |
| 1788191460 | 31.11° C | 63% | 1021.1 hPa | 0 mm | - | 789 W/m² | - |
| 1788191157 | 31.11° C | 64% | 1021.1 hPa | 0 mm | - | 730 W/m² | - |
| 1788190856 | 31.11° C | 64% | 1021.2 hPa | 0 mm | - | 579 W/m² | - |
| 1788190555 | 30.56° C | 67% | 1021.3 hPa | 0 mm | - | 687 W/m² | - |
| 1788190252 | 29.44° C | 69% | 1021.4 hPa | 0 mm | - | 696 W/m² | - |
| 1788189947 | 28.89° C | 70% | 1021.3 hPa | 0 mm | - | 120 W/m² | - |
| 1788189643 | 29.44° C | 69% | 1020.9 hPa | 0 mm | - | 109 W/m² | - |
| 1788189342 | 28.89° C | 71% | 1021.3 hPa | 0 mm | - | 109 W/m² | - |
| 1788189037 | 29.44° C | 71% | 1021.4 hPa | 0 mm | - | 228 W/m² | - |
| 1788188732 | 28.89° C | 72% | 1021.4 hPa | 0 mm | - | 116 W/m² | - |
| 1788188428 | 28.89° C | 73% | 1021.4 hPa | 0 mm | - | 107 W/m² | - |
* Rain latest hour (hover to see other rain measurements)
** Current wind speed in m/s (hover to see current wind gust speed)